createdAt,value
2023-03-19T00:00:20.093Z,913.83
2023-03-19T00:02:51.211Z,914.47
2023-03-19T00:05:19.075Z,919.83
2023-03-19T00:07:45.821Z,920.08
2023-03-19T00:10:12.767Z,924.00
2023-03-19T00:12:39.615Z,916.15
2023-03-19T00:15:08.995Z,914.05
2023-03-19T00:17:35.766Z,921.08
2023-03-19T00:20:02.626Z,910.08
2023-03-19T00:22:29.251Z,915.58
2023-03-19T00:24:56.336Z,916.90
2023-03-19T00:27:23.002Z,911.40
2023-03-19T00:29:50.012Z,908.45
2023-03-19T05:35:15.017Z,879.20
2023-03-19T05:37:42.010Z,880.58
2023-03-19T05:40:09.457Z,877.58
2023-03-19T05:42:36.584Z,877.00
2023-03-19T05:45:04.356Z,878.08
2023-03-19T05:47:31.736Z,881.10
2023-03-19T05:49:58.418Z,883.33
2023-03-19T05:52:25.172Z,873.95
2023-03-19T05:54:51.934Z,880.33
2023-03-19T05:57:18.559Z,876.67
2023-03-19T05:59:45.169Z,878.22
2023-03-19T06:02:11.796Z,878.83
2023-03-19T06:04:38.447Z,880.45
2023-03-19T06:07:06.122Z,880.88
2023-03-19T06:09:32.808Z,879.58
2023-03-19T06:11:59.458Z,876.67
2023-03-19T06:14:26.307Z,886.93
2023-03-19T06:16:52.915Z,880.95
2023-03-19T06:19:19.559Z,883.13
2023-03-19T06:21:46.189Z,877.03
2023-03-19T06:24:12.820Z,881.97
2023-03-19T06:26:39.506Z,879.30
2023-03-19T06:29:06.531Z,881.13
2023-03-19T06:31:33.338Z,880.08
2023-03-19T06:34:00.114Z,876.10
2023-03-19T06:36:27.055Z,881.70
2023-03-19T06:38:53.675Z,879.33
2023-03-19T06:41:21.224Z,876.38
2023-03-19T06:43:47.930Z,878.70
2023-03-19T06:46:14.619Z,878.77
2023-03-19T06:48:41.348Z,880.35
2023-03-19T06:51:07.985Z,874.03
2023-03-19T06:53:34.664Z,878.58
2023-03-19T06:56:01.371Z,874.20
2023-03-19T06:58:28.109Z,878.05
2023-03-19T07:00:54.786Z,879.22
2023-03-19T07:03:21.653Z,880.17
2023-03-19T07:05:51.194Z,885.42
2023-03-19T07:08:18.130Z,891.13
2023-03-19T07:10:44.738Z,886.03
2023-03-19T07:13:11.613Z,886.95
2023-03-19T07:15:38.222Z,886.65
2023-03-19T07:18:05.014Z,891.13
2023-03-19T07:20:31.989Z,898.27
2023-03-19T07:22:58.629Z,902.08
2023-03-19T07:25:26.023Z,901.22
2023-03-19T07:27:55.821Z,906.08
2023-03-19T07:30:23.159Z,895.63
2023-03-19T07:32:49.812Z,894.97
2023-03-19T07:35:16.610Z,904.47
2023-03-19T07:37:43.198Z,898.13
2023-03-19T07:40:10.929Z,902.20
2023-03-19T07:42:38.375Z,894.13
2023-03-19T07:45:06.032Z,890.25
2023-03-19T07:47:32.891Z,897.65
2023-03-19T07:49:59.556Z,897.13
2023-03-19T07:52:26.642Z,901.45
2023-03-19T07:54:53.797Z,903.85
2023-03-19T07:57:21.020Z,901.70
2023-03-19T07:59:47.662Z,910.50
2023-03-19T08:02:14.620Z,913.03
2023-03-19T08:04:41.904Z,909.67
2023-03-19T08:07:11.125Z,919.40
2023-03-19T08:09:38.129Z,912.85
2023-03-19T08:12:05.654Z,924.95
2023-03-19T08:14:33.056Z,924.65
2023-03-19T08:16:59.971Z,956.83
2023-03-19T08:19:27.022Z,955.27
2023-03-19T08:21:53.735Z,952.55
2023-03-19T08:24:20.652Z,963.13
2023-03-19T08:26:47.299Z,967.75
2023-03-19T08:29:13.953Z,973.22
2023-03-19T08:31:40.647Z,977.67
2023-03-19T08:34:10.327Z,979.23
2023-03-19T08:36:37.557Z,983.72
2023-03-19T08:39:04.483Z,974.97
2023-03-19T08:41:31.538Z,981.83
2023-03-19T08:43:58.186Z,978.13
2023-03-19T08:46:26.768Z,978.78
2023-03-19T08:48:53.796Z,983.17
2023-03-19T08:51:20.868Z,980.92
2023-03-19T08:53:47.567Z,983.38
2023-03-19T08:56:14.224Z,976.08
2023-03-19T08:58:42.103Z,980.28
2023-03-19T09:01:11.863Z,976.33
2023-03-19T09:03:39.721Z,976.92
2023-03-19T09:06:09.087Z,979.03
2023-03-19T09:08:37.248Z,981.83
2023-03-19T09:11:05.041Z,996.45
2023-03-19T09:13:32.278Z,1012.15
2023-03-19T09:15:59.065Z,1041.50
2023-03-19T09:18:26.033Z,1051.35
2023-03-19T09:20:53.896Z,1082.40
2023-03-19T09:23:21.388Z,1098.60
2023-03-19T09:25:48.591Z,1092.78
2023-03-19T09:28:15.960Z,1086.45
2023-03-19T09:30:43.349Z,1087.95
2023-03-19T09:33:10.094Z,1086.60
2023-03-19T09:35:39.566Z,1088.88
2023-03-19T09:38:06.229Z,1090.22
2023-03-19T09:40:41.515Z,1089.35
2023-03-19T09:43:25.017Z,1079.35
2023-03-19T09:45:51.786Z,1068.55
2023-03-19T09:48:40.072Z,1069.35
2023-03-19T09:51:13.745Z,1075.72
2023-03-19T09:53:57.443Z,1082.15
2023-03-19T09:56:26.026Z,1089.93
2023-03-19T09:58:52.906Z,1106.72
2023-03-19T10:01:28.626Z,1107.00
2023-03-19T10:04:22.718Z,1115.28
2023-03-19T10:06:53.662Z,1130.80
2023-03-19T10:09:26.229Z,1125.63
2023-03-19T10:12:35.040Z,1115.65
2023-03-19T10:15:23.885Z,1109.45
2023-03-19T10:17:54.376Z,1101.85
2023-03-19T10:20:44.230Z,1106.50
2023-03-19T10:23:38.363Z,1080.95
2023-03-19T10:26:10.901Z,1076.85
2023-03-19T10:28:38.351Z,1049.43
2023-03-19T10:31:28.200Z,1062.47
2023-03-19T10:34:46.286Z,1082.45
2023-03-19T10:37:12.984Z,1096.30
2023-03-19T10:39:43.517Z,1100.38
2023-03-19T10:42:21.994Z,1105.57
2023-03-19T10:44:59.072Z,1104.30
2023-03-19T10:47:27.309Z,1104.72
2023-03-19T10:49:56.387Z,1102.97
2023-03-19T10:52:28.490Z,1096.80
2023-03-19T10:55:01.132Z,1097.35
2023-03-19T10:57:29.640Z,1101.93
2023-03-19T10:59:56.247Z,1131.22
2023-03-19T11:02:31.008Z,1139.90
2023-03-19T11:05:32.230Z,1144.70
2023-03-19T11:08:02.935Z,1149.68
2023-03-19T11:10:33.248Z,1153.93
2023-03-19T11:13:05.759Z,1147.20
2023-03-19T11:15:37.854Z,1148.63
2023-03-19T11:18:27.319Z,1139.65
2023-03-19T11:21:01.442Z,1135.07
2023-03-19T11:23:30.532Z,1139.93
2023-03-19T11:26:04.001Z,1141.80
2023-03-19T11:28:33.809Z,1135.57
2023-03-19T11:31:24.004Z,1125.53
2023-03-19T11:34:03.614Z,1114.60
2023-03-19T11:36:45.741Z,1121.38
2023-03-19T11:39:30.292Z,1128.25
2023-03-19T11:42:24.766Z,1133.43
2023-03-19T11:44:58.076Z,1142.75
2023-03-19T11:47:34.225Z,1140.80
2023-03-19T11:50:19.328Z,1135.32
2023-03-19T11:53:00.306Z,1133.23
2023-03-19T11:55:44.064Z,1120.43
2023-03-19T11:58:53.954Z,1111.37
2023-03-19T12:01:51.185Z,1110.60
2023-03-19T12:04:21.083Z,1112.15
2023-03-19T12:07:01.175Z,1110.53
2023-03-19T12:09:36.659Z,1110.50
2023-03-19T12:12:29.836Z,1111.25
2023-03-19T12:15:26.798Z,1101.63
2023-03-19T12:18:22.985Z,1103.82
2023-03-19T12:21:31.024Z,1105.15
2023-03-19T12:24:12.822Z,1108.32
2023-03-19T12:27:14.398Z,1106.63
2023-03-19T12:30:00.846Z,1105.50
2023-03-19T12:32:39.850Z,1097.15
2023-03-19T12:35:13.849Z,1096.00
2023-03-19T12:37:55.222Z,1086.60
2023-03-19T12:40:39.807Z,1091.55
2023-03-19T12:43:19.211Z,1079.88
2023-03-19T12:45:50.765Z,1079.63
2023-03-19T12:48:29.123Z,1079.88
2023-03-19T12:51:01.853Z,1073.13
2023-03-19T12:53:42.912Z,1087.28
2023-03-19T12:56:27.538Z,1073.28
2023-03-19T12:59:03.956Z,1074.97
2023-03-19T13:01:35.945Z,1074.40
2023-03-19T13:04:18.978Z,1066.28
2023-03-19T13:06:55.815Z,1065.97
2023-03-19T13:09:43.177Z,1069.13
2023-03-19T13:12:17.557Z,1068.38
2023-03-19T13:14:59.735Z,1057.60
2023-03-19T13:17:42.565Z,1059.95
2023-03-19T13:20:19.138Z,1056.82
2023-03-19T13:22:54.195Z,1048.70
2023-03-19T13:25:27.414Z,1053.20
2023-03-19T13:27:55.288Z,1047.07
2023-03-19T13:30:23.758Z,1042.85
2023-03-19T13:33:04.672Z,1043.80
2023-03-19T13:35:39.817Z,1038.70
2023-03-19T13:38:25.239Z,1045.47
2023-03-19T13:40:56.992Z,1028.05
2023-03-19T13:43:29.576Z,1036.18
2023-03-19T13:46:17.725Z,1037.18
2023-03-19T13:48:47.556Z,1037.78
2023-03-19T13:51:20.226Z,1034.68
2023-03-19T13:54:08.265Z,1031.60
2023-03-19T13:57:01.247Z,1035.63
2023-03-19T13:59:34.596Z,1037.65
2023-03-19T14:02:03.440Z,1048.32
2023-03-19T14:04:36.462Z,1043.82
2023-03-19T14:07:15.541Z,1051.85
2023-03-19T14:09:46.325Z,1056.95
2023-03-19T14:12:15.787Z,1050.65
2023-03-19T14:14:46.940Z,1055.00
2023-03-19T14:17:22.193Z,1055.13
2023-03-19T14:19:52.312Z,1053.13
2023-03-19T14:22:37.144Z,1056.45
2023-03-19T14:25:21.459Z,1047.55
2023-03-19T14:28:16.626Z,1048.57
2023-03-19T14:30:50.019Z,1044.88
2023-03-19T14:33:22.712Z,1049.03
2023-03-19T14:35:50.333Z,1043.07
2023-03-19T14:38:38.130Z,1043.68
2023-03-19T14:41:06.224Z,1034.13
2023-03-19T14:43:54.870Z,1043.18
2023-03-19T14:46:47.885Z,1038.82
2023-03-19T14:49:27.584Z,1032.33
2023-03-19T14:52:19.248Z,1038.27
2023-03-19T14:54:57.117Z,1031.40
2023-03-19T14:57:35.378Z,1036.03
2023-03-19T15:00:07.306Z,1023.47
2023-03-19T15:02:48.969Z,1000.97
2023-03-19T15:05:20.351Z,999.80
2023-03-19T15:07:49.684Z,1002.47
2023-03-19T15:10:26.857Z,998.17
2023-03-19T15:13:17.516Z,991.87
2023-03-19T15:16:27.737Z,988.90
2023-03-19T15:18:54.633Z,988.47
2023-03-19T15:21:21.803Z,991.22
2023-03-19T15:23:49.049Z,990.10
2023-03-19T15:26:18.526Z,1000.00
2023-03-19T15:28:50.429Z,1009.88
2023-03-19T15:31:32.083Z,1010.92
2023-03-19T15:34:21.228Z,1018.65
2023-03-19T15:36:51.158Z,1007.42
2023-03-19T15:39:19.714Z,998.67
2023-03-19T15:41:48.723Z,992.00
2023-03-19T15:44:38.416Z,991.08
2023-03-19T15:47:08.111Z,979.20
2023-03-19T15:49:54.456Z,983.45
2023-03-19T15:52:21.592Z,977.88
2023-03-19T15:54:48.326Z,969.15
2023-03-19T15:57:17.922Z,973.10
2023-03-19T15:59:45.933Z,969.93
2023-03-19T16:02:29.806Z,972.10
2023-03-19T16:05:20.822Z,958.75
2023-03-19T16:07:44.604Z,953.33
2023-03-19T16:10:33.561Z,956.33
2023-03-19T16:13:04.120Z,957.87
2023-03-19T16:15:44.959Z,958.75
2023-03-19T16:18:20.623Z,955.58
2023-03-19T16:20:53.348Z,941.50
2023-03-19T16:23:21.263Z,938.35
2023-03-19T16:25:48.012Z,941.35
2023-03-19T16:28:17.880Z,942.55
2023-03-19T16:30:48.766Z,935.20
2023-03-19T16:33:15.854Z,953.83
2023-03-19T16:35:44.692Z,953.75
2023-03-19T16:38:22.917Z,951.58
2023-03-19T16:41:08.966Z,948.47
2023-03-19T16:43:36.680Z,939.65
2023-03-19T16:46:08.733Z,934.67
2023-03-19T16:48:35.667Z,935.22
2023-03-19T16:51:02.449Z,942.78
2023-03-19T16:53:30.902Z,931.00
2023-03-19T16:55:59.397Z,920.90
2023-03-19T16:58:31.623Z,926.00
2023-03-19T17:00:59.068Z,928.58
2023-03-19T17:03:26.070Z,916.63
2023-03-19T17:05:52.768Z,930.13
2023-03-19T17:08:21.697Z,927.50
2023-03-19T17:10:51.461Z,928.03
2023-03-19T17:13:21.593Z,933.85
2023-03-19T17:15:50.879Z,927.72
2023-03-19T17:18:22.844Z,920.92
2023-03-19T17:20:56.689Z,921.92
2023-03-19T17:23:26.850Z,920.17
2023-03-19T17:25:54.311Z,922.43
2023-03-19T17:28:21.082Z,926.00
2023-03-19T17:30:47.962Z,907.60
2023-03-19T17:33:26.817Z,928.78
2023-03-19T17:35:55.262Z,916.83
2023-03-19T17:38:31.738Z,925.67
2023-03-19T17:40:58.488Z,931.78
2023-03-19T17:43:25.141Z,915.75
2023-03-19T17:45:51.843Z,907.42
2023-03-19T17:48:25.631Z,904.03
2023-03-19T17:50:57.546Z,907.35
2023-03-19T17:53:24.134Z,903.67
2023-03-19T17:55:50.920Z,901.90
2023-03-19T17:58:19.979Z,902.90
2023-03-19T18:00:51.505Z,897.17
2023-03-19T18:03:20.962Z,903.50
2023-03-19T18:05:50.251Z,904.10
2023-03-19T18:08:20.770Z,902.90
2023-03-19T18:10:47.528Z,902.77
2023-03-19T18:13:14.249Z,900.38
2023-03-19T18:15:42.998Z,895.15
2023-03-19T18:18:20.325Z,904.08
2023-03-19T18:20:47.667Z,900.72
2023-03-19T18:23:16.154Z,900.95
2023-03-19T18:25:46.624Z,900.28
2023-03-19T18:28:13.306Z,891.00
2023-03-19T18:30:41.336Z,899.15
2023-03-19T18:33:13.650Z,899.70
2023-03-19T18:35:42.540Z,881.35
2023-03-19T18:38:19.240Z,877.88
2023-03-19T18:40:46.555Z,865.13
2023-03-19T18:43:15.932Z,861.95
2023-03-19T18:45:44.265Z,857.75
2023-03-19T18:48:27.669Z,846.30
2023-03-19T18:50:55.570Z,851.80
2023-03-19T18:53:23.357Z,844.50
2023-03-19T18:55:50.964Z,858.58
2023-03-19T18:58:24.866Z,863.35
2023-03-19T19:00:52.724Z,863.53
2023-03-19T19:03:22.797Z,872.47
2023-03-19T19:05:49.742Z,870.30
2023-03-19T19:08:19.501Z,866.17
2023-03-19T19:10:52.588Z,859.13
2023-03-19T19:13:23.157Z,871.38
2023-03-19T19:15:50.835Z,870.55
2023-03-19T19:18:26.116Z,864.10
2023-03-19T19:20:53.903Z,865.45
2023-03-19T19:23:21.943Z,858.88
2023-03-19T19:25:52.015Z,870.05
2023-03-19T19:28:30.495Z,874.78
2023-03-19T19:31:01.492Z,870.88
2023-03-19T19:33:33.110Z,876.25
2023-03-19T19:35:59.745Z,872.63
2023-03-19T19:38:26.588Z,874.33
2023-03-19T19:40:55.348Z,881.97
2023-03-19T19:43:24.911Z,877.40
2023-03-19T19:45:54.312Z,878.17
2023-03-19T19:48:26.388Z,876.50
2023-03-19T19:50:54.849Z,877.10
2023-03-19T19:53:23.178Z,870.33
2023-03-19T19:55:49.800Z,884.10
2023-03-19T19:58:21.281Z,880.40
2023-03-19T20:01:02.426Z,882.90
2023-03-19T20:03:32.382Z,875.42
2023-03-19T20:06:00.626Z,878.30
2023-03-19T20:08:27.503Z,878.25
2023-03-19T20:10:54.842Z,870.33
2023-03-19T20:13:33.930Z,874.13
2023-03-19T20:16:02.172Z,873.40
2023-03-19T20:18:32.121Z,869.85
2023-03-19T20:20:59.595Z,881.65
2023-03-19T20:23:26.510Z,879.85
2023-03-19T20:25:53.225Z,871.00
2023-03-19T20:28:24.593Z,879.72
2023-03-19T20:30:53.738Z,882.40
2023-03-19T20:33:21.254Z,868.47
2023-03-19T20:35:48.360Z,863.10
2023-03-19T20:38:15.408Z,856.22
2023-03-19T20:40:43.755Z,862.53
2023-03-19T20:43:32.299Z,871.37
2023-03-19T20:46:02.768Z,854.78
2023-03-19T20:48:30.601Z,857.20
2023-03-19T20:50:58.384Z,857.55
2023-03-19T20:53:25.784Z,848.45
2023-03-19T20:55:52.786Z,855.30
2023-03-19T20:58:30.444Z,856.70
2023-03-19T21:00:58.649Z,857.28
2023-03-19T21:03:28.212Z,858.67
2023-03-19T21:06:01.725Z,851.30
2023-03-19T21:08:35.556Z,853.90
2023-03-19T21:11:02.946Z,857.83
2023-03-19T21:13:31.743Z,855.70
2023-03-19T21:15:58.489Z,850.07
2023-03-19T21:18:25.330Z,853.08
2023-03-19T21:20:55.484Z,851.67
2023-03-19T21:23:34.799Z,863.65
2023-03-19T21:26:07.636Z,858.92
2023-03-19T21:28:37.060Z,852.67
2023-03-19T21:31:04.099Z,860.88
2023-03-19T21:33:33.668Z,862.53
2023-03-19T21:36:02.427Z,858.03
2023-03-19T21:38:29.395Z,854.33
2023-03-19T21:41:02.473Z,857.67
2023-03-19T21:43:43.003Z,855.08
2023-03-19T21:46:24.103Z,854.65
2023-03-19T21:48:52.520Z,850.30
2023-03-19T21:51:19.358Z,844.58
2023-03-19T21:53:47.728Z,854.10
2023-03-19T21:56:32.812Z,830.30
2023-03-19T21:59:10.134Z,844.25
2023-03-19T22:01:36.802Z,844.50
2023-03-19T22:04:03.500Z,845.17
2023-03-19T22:06:30.484Z,835.25
2023-03-19T22:08:57.723Z,839.08
2023-03-19T22:11:29.933Z,837.92
2023-03-19T22:14:12.013Z,823.35
2023-03-19T22:16:38.998Z,843.27
2023-03-19T22:19:14.522Z,822.85
2023-03-19T22:21:41.541Z,843.50
2023-03-19T22:24:08.189Z,833.92
2023-03-19T22:26:37.129Z,843.65
2023-03-19T22:29:20.480Z,844.60
2023-03-19T22:31:53.542Z,845.63
2023-03-19T22:34:23.736Z,844.80
2023-03-19T22:36:50.889Z,851.53
2023-03-19T22:39:17.925Z,846.03
2023-03-19T22:41:47.853Z,837.25
2023-03-19T22:44:32.626Z,842.90
2023-03-19T22:47:01.588Z,832.27
2023-03-19T22:49:29.669Z,827.42
2023-03-19T22:51:57.630Z,828.80
2023-03-19T22:54:24.416Z,839.85
2023-03-19T22:56:51.063Z,835.53
2023-03-19T22:59:17.658Z,824.78
2023-03-19T23:01:46.606Z,819.55
2023-03-19T23:04:22.489Z,822.28
2023-03-19T23:06:50.416Z,826.90
2023-03-19T23:09:24.506Z,829.10
2023-03-19T23:11:52.631Z,815.65
2023-03-19T23:14:35.485Z,814.75
2023-03-19T23:17:13.714Z,822.47
2023-03-19T23:19:40.367Z,809.28
2023-03-19T23:22:13.650Z,806.10
2023-03-19T23:24:41.974Z,811.85
2023-03-19T23:27:26.695Z,803.88
2023-03-19T23:29:53.928Z,804.05
2023-03-19T23:32:21.906Z,803.97
2023-03-19T23:34:59.605Z,807.15
2023-03-19T23:37:28.727Z,810.72
2023-03-19T23:39:56.242Z,813.42
2023-03-19T23:42:28.653Z,815.90
2023-03-19T23:45:06.605Z,811.92
2023-03-19T23:47:33.679Z,811.58
2023-03-19T23:50:00.361Z,815.85
2023-03-19T23:52:27.078Z,810.88
2023-03-19T23:54:53.774Z,813.25
2023-03-19T23:57:26.700Z,812.50
2023-03-19T23:59:53.715Z,812.65
